Time;durP1;ratioP1;P1;durP2;ratioP2;P2;SDS_P1;SDS_P2;PMS_P1;PMS_P2;Temp;Humidity;BMP_temperature;BMP_pressure;BME280_temperature;BME280_humidity;BME280_pressure;Samples;Min_cycle;Max_cycle;Signal;HPM_P1;HPM_P2
2022/12/09 00:01:54;;;;;;;14.18;8.07;;;0.40;99.90;;;;;;5087906;28;20211;-78
2022/12/09 00:04:23;;;;;;;11.88;9.30;;;0.30;99.90;;;;;;5087518;28;20292;-79
2022/12/09 00:06:51;;;;;;;13.20;9.50;;;0.40;99.90;;;;;;5086106;28;22088;-77
2022/12/09 00:09:20;;;;;;;9.88;8.50;;;0.30;99.90;;;;;;5088841;28;20219;-78
2022/12/09 00:11:51;;;;;;;11.45;8.38;;;0.30;99.90;;;;;;5083892;28;20216;-77
2022/12/09 00:14:21;;;;;;;10.43;7.10;;;0.30;99.90;;;;;;5087889;28;20210;-78
2022/12/09 00:16:49;;;;;;;9.68;7.72;;;0.30;99.90;;;;;;5087536;27;20402;-79
2022/12/09 00:19:18;;;;;;;10.48;9.50;;;0.20;99.90;;;;;;5089847;27;20677;-78
2022/12/09 00:21:46;;;;;;;9.98;8.57;;;0.20;99.90;;;;;;5088167;28;20238;-78
2022/12/09 00:24:15;;;;;;;9.40;7.55;;;0.20;99.90;;;;;;5086536;28;20191;-78
2022/12/09 00:26:43;;;;;;;10.32;7.40;;;0.20;99.90;;;;;;5094561;28;20288;-77
2022/12/09 00:29:12;;;;;;;12.95;7.95;;;0.20;99.90;;;;;;5090797;28;20203;-79
2022/12/09 00:31:41;;;;;;;8.88;7.05;;;0.10;99.90;;;;;;5087260;28;20229;-78
2022/12/09 00:34:12;;;;;;;6.20;5.60;;;0.20;99.90;;;;;;5087282;27;20210;-79
2022/12/09 00:36:41;;;;;;;7.55;5.32;;;0.30;99.90;;;;;;5087196;28;20199;-78
2022/12/09 00:39:11;;;;;;;5.85;4.75;;;0.30;99.90;;;;;;5087832;28;20353;-77
2022/12/09 00:41:39;;;;;;;4.57;4.25;;;0.30;99.90;;;;;;5090405;28;20223;-78
2022/12/09 00:44:07;;;;;;;6.72;5.68;;;0.30;99.90;;;;;;5088564;28;20204;-78
2022/12/09 00:46:36;;;;;;;6.07;5.47;;;0.20;99.90;;;;;;5082784;28;21560;-76
2022/12/09 00:49:06;;;;;;;6.15;5.53;;;0.00;99.90;;;;;;5086866;28;20208;-78
2022/12/09 00:51:34;;;;;;;5.90;5.38;;;0.20;99.90;;;;;;5087024;28;20220;-78
2022/12/09 00:54:02;;;;;;;6.05;5.45;;;0.00;99.90;;;;;;5095186;28;20223;-78
2022/12/09 00:56:31;;;;;;;6.15;5.55;;;0.10;99.90;;;;;;5093076;27;20211;-77
2022/12/09 00:58:59;;;;;;;5.57;5.07;;;0.20;99.90;;;;;;5091948;28;20287;-77
2022/12/09 01:01:28;;;;;;;5.05;4.65;;;0.10;99.90;;;;;;5092846;28;20224;-79
2022/12/09 01:03:57;;;;;;;5.20;4.70;;;0.00;99.90;;;;;;5096687;28;20224;-77
2022/12/09 01:06:27;;;;;;;4.50;4.15;;;0.00;99.90;;;;;;5092533;28;20215;-76
2022/12/09 01:08:55;;;;;;;5.10;4.35;;;-0.10;99.90;;;;;;5086628;28;20260;-78
2022/12/09 01:11:26;;;;;;;5.00;4.50;;;-0.20;99.90;;;;;;5088890;28;20224;-78
2022/12/09 01:13:57;;;;;;;7.75;5.38;;;-0.20;99.90;;;;;;5093651;28;20207;-77
2022/12/09 01:16:28;;;;;;;4.88;4.38;;;-0.30;99.90;;;;;;5091976;28;20295;-77
2022/12/09 01:19:00;;;;;;;4.55;4.15;;;-0.30;99.90;;;;;;5093110;28;20239;-77
2022/12/09 01:21:30;;;;;;;6.57;4.40;;;-0.30;1.00;;;;;;5093155;28;20238;-77
2022/12/09 01:23:59;;;;;;;4.85;4.25;;;-0.30;1.00;;;;;;5093200;28;20191;-77
2022/12/09 01:26:27;;;;;;;5.22;4.72;;;-0.40;1.00;;;;;;5096980;28;20202;-77
2022/12/09 01:28:56;;;;;;;4.50;4.00;;;-0.40;1.00;;;;;;5097197;28;20561;-77
2022/12/09 01:31:25;;;;;;;5.82;4.40;;;-0.40;99.90;;;;;;5094081;28;21053;-78
2022/12/09 01:33:55;;;;;;;4.47;4.15;;;-0.40;99.90;;;;;;5092663;28;20199;-78
2022/12/09 01:36:26;;;;;;;4.72;4.25;;;-0.50;99.90;;;;;;5092303;28;20227;-77
2022/12/09 01:38:57;;;;;;;4.45;4.15;;;-0.50;1.00;;;;;;5094715;28;20245;-77
2022/12/09 01:41:26;;;;;;;4.43;4.03;;;-0.50;1.00;;;;;;5096096;28;20219;-77
2022/12/09 01:44:22;;;;;;;4.60;4.20;;;-0.30;1.00;;;;;;5093045;28;20208;-77
2022/12/09 01:46:54;;;;;;;4.43;4.03;;;-0.30;1.00;;;;;;5059042;28;20624;-77
2022/12/09 01:49:25;;;;;;;4.20;3.90;;;-0.50;99.90;;;;;;5094627;28;20258;-77
2022/12/09 01:52:01;;;;;;;4.50;4.20;;;-0.50;99.90;;;;;;5089558;28;20220;-77
2022/12/09 01:54:31;;;;;;;5.80;5.20;;;-0.50;1.00;;;;;;5096707;28;20761;-77
2022/12/09 01:57:00;;;;;;;5.82;5.28;;;-0.30;99.90;;;;;;5096215;28;20203;-78
2022/12/09 01:59:29;;;;;;;5.22;4.05;;;-0.30;1.00;;;;;;5091323;28;20295;-78
2022/12/09 02:02:00;;;;;;;7.05;6.45;;;-0.30;1.00;;;;;;5088920;28;20342;-76
2022/12/09 02:04:31;;;;;;;5.68;5.13;;;-0.30;1.00;;;;;;5092885;28;20247;-78
2022/12/09 02:07:04;;;;;;;5.88;5.30;;;-0.40;99.90;;;;;;5091859;28;20196;-77
2022/12/09 02:09:34;;;;;;;5.22;4.72;;;-0.40;99.90;;;;;;5096662;28;20206;-78
2022/12/09 02:12:12;;;;;;;5.00;4.43;;;-0.50;99.90;;;;;;5094061;28;20216;-77
2022/12/09 02:14:44;;;;;;;6.28;5.25;;;-0.50;99.90;;;;;;5100798;28;20208;-77
2022/12/09 02:17:25;;;;;;;4.13;3.72;;;-0.50;99.90;;;;;;5091893;27;20207;-77
2022/12/09 02:20:01;;;;;;;5.13;4.63;;;-0.40;99.90;;;;;;5097652;27;20227;-78
2022/12/09 02:22:34;;;;;;;5.32;4.82;;;-0.20;1.00;;;;;;5096542;28;20249;-76
2022/12/09 02:25:12;;;;;;;5.97;5.07;;;0.20;99.90;;;;;;5101274;27;20570;-77
2022/12/09 02:27:48;;;;;;;5.95;5.40;;;-0.10;99.90;;;;;;5097807;27;20765;-78
2022/12/09 02:30:18;;;;;;;6.07;5.25;;;-0.20;99.90;;;;;;5094523;27;20207;-77
2022/12/09 02:33:08;;;;;;;5.38;4.70;;;-0.30;99.90;;;;;;5095996;28;20731;-78
2022/12/09 02:35:42;;;;;;;6.72;5.45;;;-0.40;1.00;;;;;;5097040;27;20632;-78
2022/12/09 02:38:14;;;;;;;6.35;5.75;;;-0.30;1.00;;;;;;5095921;28;20281;-78
2022/12/09 02:40:48;;;;;;;6.80;6.10;;;-0.40;1.00;;;;;;5094959;28;20220;-77
2022/12/09 02:43:20;;;;;;;7.18;6.45;;;-0.30;1.00;;;;;;5093242;28;20542;-79
2022/12/09 02:45:50;;;;;;;6.57;5.97;;;-0.40;1.00;;;;;;5096068;28;20230;-78
2022/12/09 02:48:24;;;;;;;6.57;5.97;;;-0.40;1.00;;;;;;5096097;28;20233;-78
2022/12/09 02:50:56;;;;;;;7.70;6.07;;;-0.50;1.00;;;;;;5095307;28;20269;-78
2022/12/09 02:53:26;;;;;;;5.72;5.30;;;-0.50;1.00;;;;;;5093698;28;20200;-78
2022/12/09 02:55:55;;;;;;;6.72;6.05;;;-0.50;1.00;;;;;;5096092;28;20219;-78
2022/12/09 02:58:24;;;;;;;6.35;5.68;;;-0.60;1.00;;;;;;5086356;28;20225;-77
2022/12/09 03:00:55;;;;;;;6.47;5.97;;;-0.70;1.00;;;;;;5095941;27;20721;-79
2022/12/09 03:03:25;;;;;;;9.02;6.38;;;-0.70;1.00;;;;;;5093644;28;20252;-78
2022/12/09 03:06:04;;;;;;;5.78;5.28;;;-0.70;1.00;;;;;;5097296;28;20294;-78
2022/12/09 03:08:41;;;;;;;5.53;5.03;;;-0.80;1.00;;;;;;5097899;28;20252;-77
2022/12/09 03:11:12;;;;;;;6.30;4.68;;;-0.80;1.00;;;;;;5098685;28;20222;-77
2022/12/09 03:13:50;;;;;;;6.53;5.93;;;-0.80;1.00;;;;;;5090000;27;20199;-78
2022/12/09 03:16:24;;;;;;;5.30;4.80;;;-0.80;1.00;;;;;;5096702;27;21822;-78
2022/12/09 03:18:57;;;;;;;5.70;4.93;;;-0.80;1.00;;;;;;5094134;28;20222;-78
2022/12/09 03:21:28;;;;;;;5.72;4.90;;;-0.80;1.00;;;;;;5095409;28;20229;-77
2022/12/09 03:23:58;;;;;;;5.75;5.05;;;-0.80;1.00;;;;;;5094060;28;20730;-77
2022/12/09 03:26:30;;;;;;;5.75;4.88;;;-0.90;1.00;;;;;;5094794;28;20188;-77
2022/12/09 03:29:03;;;;;;;5.72;4.82;;;-0.70;1.00;;;;;;5091155;27;20207;-78
2022/12/09 03:31:33;;;;;;;6.93;4.90;;;-0.80;1.00;;;;;;5093873;28;20239;-77
2022/12/09 03:34:04;;;;;;;6.47;5.88;;;-0.80;1.00;;;;;;5094726;27;20608;-77
2022/12/09 03:36:38;;;;;;;7.55;6.75;;;-0.90;1.00;;;;;;5094457;28;20303;-78
2022/12/09 03:39:09;;;;;;;6.50;5.90;;;-0.90;1.00;;;;;;5094111;28;20203;-78
2022/12/09 03:41:42;;;;;;;5.32;4.72;;;-0.90;1.00;;;;;;5096958;27;20218;-77
2022/12/09 03:44:16;;;;;;;6.32;5.70;;;-0.90;1.00;;;;;;5089340;28;20200;-77
2022/12/09 03:46:45;;;;;;;7.63;6.30;;;-0.90;1.00;;;;;;5096700;28;20221;-78
2022/12/09 03:49:15;;;;;;;8.68;5.93;;;-0.80;1.00;;;;;;5092314;27;20202;-77
2022/12/09 03:51:48;;;;;;;8.85;5.75;;;-0.90;99.90;;;;;;5092883;28;20224;-77
2022/12/09 03:54:22;;;;;;;9.15;6.47;;;-0.90;1.00;;;;;;5112320;27;20750;-77
2022/12/09 03:56:54;;;;;;;5.57;4.97;;;-0.90;1.00;;;;;;5092206;28;20219;-77
2022/12/09 03:59:23;;;;;;;5.95;5.38;;;-0.90;1.00;;;;;;5093849;28;20265;-77
2022/12/09 04:01:52;;;;;;;5.80;5.28;;;-0.80;1.00;;;;;;5092736;28;20220;-77
2022/12/09 04:04:21;;;;;;;6.45;5.82;;;-0.90;99.90;;;;;;5096107;28;20209;-77
2022/12/09 04:06:53;;;;;;;6.00;5.35;;;-0.80;1.00;;;;;;5095184;28;20538;-77
2022/12/09 04:09:21;;;;;;;7.32;4.75;;;-0.90;1.00;;;;;;5099137;27;20195;-77
2022/12/09 04:11:50;;;;;;;6.63;5.63;;;-0.80;1.00;;;;;;5098748;28;20297;-78
2022/12/09 04:14:19;;;;;;;5.90;5.40;;;-0.80;1.00;;;;;;5090699;27;20282;-78
2022/12/09 04:16:47;;;;;;;6.38;5.50;;;-0.80;1.00;;;;;;5095577;28;20219;-77
2022/12/09 04:19:16;;;;;;;8.80;7.15;;;-0.90;1.00;;;;;;5091299;28;20204;-77
2022/12/09 04:21:44;;;;;;;11.88;9.50;;;-0.90;1.00;;;;;;5096549;28;20232;-77
2022/12/09 04:24:14;;;;;;;11.68;7.72;;;-0.80;24.50;;;;;;5088819;28;20199;-77
2022/12/09 04:26:42;;;;;;;13.43;8.35;;;-0.80;1.00;;;;;;5094637;28;20191;-77
2022/12/09 04:29:11;;;;;;;7.50;6.75;;;-0.90;1.00;;;;;;5094489;28;20226;-77
2022/12/09 04:31:39;;;;;;;9.40;6.70;;;-0.80;1.00;;;;;;5091729;28;20706;-76
2022/12/09 04:34:08;;;;;;;7.97;5.97;;;-0.80;99.90;;;;;;5097653;28;20238;-76
2022/12/09 04:36:38;;;;;;;6.40;5.80;;;-0.90;1.00;;;;;;5095674;28;20654;-76
2022/12/09 04:39:07;;;;;;;27.50;13.40;;;-0.90;1.00;;;;;;5091491;28;20200;-76
2022/12/09 04:41:37;;;;;;;23.17;10.15;;;-0.90;1.00;;;;;;5099484;28;20541;-76
2022/12/09 04:44:05;;;;;;;11.90;7.18;;;-0.90;1.00;;;;;;5094213;27;20238;-78
2022/12/09 04:46:34;;;;;;;8.18;7.43;;;-0.90;1.00;;;;;;5091738;28;20284;-77
2022/12/09 04:49:03;;;;;;;11.18;8.32;;;-0.90;1.00;;;;;;5097947;28;20321;-77
2022/12/09 04:51:31;;;;;;;9.20;6.82;;;-0.90;1.00;;;;;;5096349;28;20706;-76
2022/12/09 04:54:07;;;;;;;8.77;5.22;;;-0.90;1.00;;;;;;5089440;28;20211;-76
2022/12/09 04:56:37;;;;;;;12.15;8.45;;;-0.90;1.00;;;;;;5089079;28;20211;-77
2022/12/09 04:59:06;;;;;;;9.85;6.97;;;-0.90;1.00;;;;;;5089831;28;20296;-77
2022/12/09 05:01:35;;;;;;;8.70;7.35;;;-0.90;41.50;;;;;;5088455;28;20220;-78
2022/12/09 05:04:04;;;;;;;7.90;7.10;;;-0.90;39.60;;;;;;5090049;28;20293;-76
2022/12/09 05:06:32;;;;;;;9.85;7.93;;;-0.90;1.00;;;;;;5091895;28;20651;-77
2022/12/09 05:09:02;;;;;;;13.02;8.68;;;-0.90;1.00;;;;;;5093718;28;20208;-77
2022/12/09 05:11:30;;;;;;;11.48;7.45;;;-0.80;1.00;;;;;;5093907;28;20258;-77
2022/12/09 05:14:00;;;;;;;11.43;8.02;;;-0.80;1.00;;;;;;5090364;28;20195;-78
2022/12/09 05:16:28;;;;;;;7.93;6.72;;;-0.70;1.00;;;;;;5091722;28;20218;-76
2022/12/09 05:18:59;;;;;;;8.10;7.03;;;-0.60;1.00;;;;;;5090402;28;20275;-77
2022/12/09 05:21:28;;;;;;;8.35;7.55;;;-0.60;1.00;;;;;;5094417;28;20231;-77
2022/12/09 05:23:57;;;;;;;8.55;6.78;;;-0.70;1.00;;;;;;5091516;28;20557;-78
2022/12/09 05:26:26;;;;;;;8.20;6.80;;;-0.80;16.40;;;;;;5090475;28;20286;-76
2022/12/09 05:28:54;;;;;;;8.80;7.03;;;-0.80;98.20;;;;;;5086720;28;20530;-77
2022/12/09 05:31:24;;;;;;;9.43;7.65;;;-0.90;99.90;;;;;;5088909;28;20215;-76
2022/12/09 05:34:07;;;;;;;7.95;6.90;;;-0.80;99.90;;;;;;5093079;28;20269;-77
2022/12/09 05:36:36;;;;;;;8.07;6.93;;;-0.80;99.90;;;;;;5083532;28;20219;-77
2022/12/09 05:39:05;;;;;;;7.60;6.90;;;-0.70;99.90;;;;;;5091234;28;20563;-77
2022/12/09 05:41:34;;;;;;;8.98;7.90;;;-0.70;99.90;;;;;;5095577;28;20233;-76
2022/12/09 05:44:02;;;;;;;10.32;7.82;;;-0.80;99.90;;;;;;5089168;28;20195;-78
2022/12/09 05:46:32;;;;;;;8.55;6.97;;;-0.80;44.30;;;;;;5087943;28;20204;-76
2022/12/09 05:49:00;;;;;;;10.88;8.43;;;-0.80;17.50;;;;;;5090329;28;20203;-77
2022/12/09 05:51:30;;;;;;;8.90;7.63;;;-0.80;99.90;;;;;;5095392;27;20224;-78
2022/12/09 05:54:01;;;;;;;8.55;7.70;;;-0.80;99.90;;;;;;5089719;28;20220;-77
2022/12/09 05:56:31;;;;;;;11.18;7.82;;;-0.70;99.90;;;;;;5096140;28;20274;-77
2022/12/09 05:58:59;;;;;;;9.13;7.40;;;-0.70;99.90;;;;;;5094093;28;20675;-76
2022/12/09 06:01:28;;;;;;;7.90;7.10;;;-0.80;99.90;;;;;;5093609;27;20227;-76
2022/12/09 06:03:58;;;;;;;13.85;8.88;;;-0.80;99.90;;;;;;5098680;27;20203;-77
2022/12/09 06:06:28;;;;;;;9.23;7.45;;;-0.80;99.90;;;;;;5093958;28;20204;-78
2022/12/09 06:08:59;;;;;;;10.13;7.20;;;-0.80;99.90;;;;;;5101280;28;20195;-76
2022/12/09 06:11:28;;;;;;;11.20;6.82;;;-0.80;99.90;;;;;;5097931;28;20210;-78
2022/12/09 06:13:57;;;;;;;8.32;7.20;;;-0.70;99.90;;;;;;5096122;28;20199;-76
2022/12/09 06:16:25;;;;;;;8.80;7.60;;;-0.70;99.90;;;;;;5093630;28;20378;-78
2022/12/09 06:18:54;;;;;;;8.68;7.85;;;-0.70;99.90;;;;;;5092057;27;20199;-77
2022/12/09 06:21:25;;;;;;;8.75;7.35;;;-0.80;99.90;;;;;;5089938;27;20230;-77
2022/12/09 06:23:53;;;;;;;8.07;6.93;;;-0.80;99.90;;;;;;5093193;28;20781;-79
2022/12/09 06:26:24;;;;;;;15.85;13.15;;;-0.70;99.90;;;;;;5094906;28;20855;-77
2022/12/09 06:28:54;;;;;;;10.90;8.70;;;-0.60;99.90;;;;;;5096909;28;20212;-76
2022/12/09 06:31:24;;;;;;;11.32;9.88;;;-0.50;99.90;;;;;;5090786;28;20283;-77
2022/12/09 06:33:53;;;;;;;10.05;8.90;;;-0.60;99.90;;;;;;5098103;28;20205;-77
2022/12/09 06:36:27;;;;;;;11.27;9.43;;;-0.60;1.00;;;;;;5094599;28;20662;-79
2022/12/09 06:38:57;;;;;;;8.35;7.60;;;-0.70;99.90;;;;;;5098710;28;20204;-76
2022/12/09 06:41:34;;;;;;;9.07;7.97;;;-0.60;1.00;;;;;;5088364;28;20791;-76
2022/12/09 06:44:03;;;;;;;8.48;7.32;;;-0.60;99.90;;;;;;5081518;28;20211;-77
2022/12/09 06:46:32;;;;;;;10.40;7.72;;;-0.60;99.90;;;;;;5088939;28;20278;-76
2022/12/09 06:49:01;;;;;;;7.93;7.22;;;-0.60;1.00;;;;;;5092197;28;20235;-78
2022/12/09 06:51:31;;;;;;;10.65;9.00;;;-0.60;1.00;;;;;;5092783;27;20226;-78
2022/12/09 06:53:59;;;;;;;8.70;7.88;;;-0.60;1.00;;;;;;5094566;28;20192;-76
2022/12/09 06:56:28;;;;;;;9.30;8.00;;;-0.60;1.00;;;;;;5093801;28;20224;-78
2022/12/09 06:58:56;;;;;;;11.18;8.93;;;-0.50;1.00;;;;;;5092134;28;20697;-77
2022/12/09 07:01:25;;;;;;;8.85;7.50;;;-0.50;1.00;;;;;;5093646;28;20230;-77
2022/12/09 07:03:55;;;;;;;8.70;7.70;;;-0.40;1.00;;;;;;5097657;27;20208;-78
2022/12/09 07:06:28;;;;;;;7.40;6.72;;;-0.50;99.90;;;;;;5095891;28;20193;-76
2022/12/09 07:09:02;;;;;;;13.48;8.57;;;-0.40;99.90;;;;;;5095078;28;20237;-77
2022/12/09 07:11:31;;;;;;;10.23;8.48;;;-0.40;99.90;;;;;;5094693;28;20252;-77
2022/12/09 07:14:01;;;;;;;10.43;9.25;;;-0.40;99.90;;;;;;5091294;27;20657;-77
2022/12/09 07:16:30;;;;;;;10.20;8.48;;;-0.30;14.00;;;;;;5093520;28;20253;-78
2022/12/09 07:18:59;;;;;;;9.40;7.78;;;-0.30;1.00;;;;;;5095523;28;20295;-77
2022/12/09 07:21:28;;;;;;;9.75;8.60;;;-0.30;1.00;;;;;;5094383;28;20628;-77
2022/12/09 07:24:00;;;;;;;11.23;9.77;;;-0.20;1.00;;;;;;5094553;28;20196;-78
2022/12/09 07:26:31;;;;;;;11.10;9.50;;;-0.20;99.90;;;;;;5096168;27;20204;-77
2022/12/09 07:29:01;;;;;;;10.30;9.10;;;-0.30;1.00;;;;;;5091951;28;20692;-77
2022/12/09 07:31:31;;;;;;;12.23;9.77;;;-0.30;98.00;;;;;;5091408;27;20221;-76
2022/12/09 07:34:00;;;;;;;10.00;9.00;;;-0.30;94.00;;;;;;5097960;27;20192;-76
2022/12/09 07:36:30;;;;;;;10.32;9.32;;;-0.20;76.30;;;;;;5089028;27;20204;-78
2022/12/09 07:39:02;;;;;;;13.05;10.02;;;-0.20;99.90;;;;;;5096027;28;20209;-76
2022/12/09 07:41:32;;;;;;;12.80;10.25;;;-0.20;21.00;;;;;;5095494;27;20211;-76
2022/12/09 07:44:02;;;;;;;10.38;9.27;;;-0.10;1.00;;;;;;5091926;27;20617;-76
2022/12/09 07:46:31;;;;;;;11.23;10.02;;;-0.10;53.90;;;;;;5090755;27;20249;-76
2022/12/09 07:49:02;;;;;;;10.57;9.40;;;-0.20;1.00;;;;;;5090893;28;20302;-77
2022/12/09 07:51:32;;;;;;;9.55;8.70;;;-0.10;1.00;;;;;;5094712;27;20223;-78
2022/12/09 07:54:02;;;;;;;12.38;8.68;;;-0.10;99.90;;;;;;5091577;28;20233;-78
2022/12/09 07:56:32;;;;;;;14.90;9.98;;;0.00;99.90;;;;;;5089548;28;20227;-78
2022/12/09 07:59:01;;;;;;;10.73;9.15;;;0.10;1.00;;;;;;5099383;28;20230;-78
2022/12/09 08:01:30;;;;;;;9.73;8.82;;;0.10;29.40;;;;;;5088924;27;20219;-78
2022/12/09 08:04:00;;;;;;;14.02;8.90;;;0.20;99.90;;;;;;5093365;28;20661;-78
2022/12/09 08:06:30;;;;;;;11.05;9.45;;;0.20;99.90;;;;;;5091019;28;20423;-78
2022/12/09 08:09:03;;;;;;;11.85;10.57;;;0.30;1.00;;;;;;5088530;28;20440;-78
2022/12/09 08:11:33;;;;;;;10.73;9.75;;;0.40;99.90;;;;;;5090715;27;20223;-77
2022/12/09 08:14:04;;;;;;;14.38;11.10;;;0.50;1.00;;;;;;5091021;27;20235;-76
2022/12/09 08:16:40;;;;;;;16.15;10.55;;;0.60;1.00;;;;;;5091826;27;20192;-76
2022/12/09 08:19:09;;;;;;;13.82;9.50;;;0.60;1.00;;;;;;5094131;28;20212;-76
2022/12/09 08:21:39;;;;;;;11.80;9.73;;;0.60;99.90;;;;;;5095502;27;20882;-76
2022/12/09 08:24:11;;;;;;;11.82;9.30;;;0.70;1.00;;;;;;5093218;28;20199;-77
2022/12/09 08:26:41;;;;;;;10.10;8.57;;;0.90;99.90;;;;;;5089832;27;20225;-77
2022/12/09 08:29:12;;;;;;;13.57;8.65;;;0.90;99.90;;;;;;5099406;28;20719;-76
2022/12/09 08:31:43;;;;;;;15.13;7.70;;;1.00;1.00;;;;;;5089815;28;20227;-76
2022/12/09 08:34:12;;;;;;;10.18;8.18;;;1.00;1.00;;;;;;5087617;28;20672;-76
2022/12/09 08:36:42;;;;;;;8.98;7.72;;;1.10;1.00;;;;;;5088205;28;20192;-76
2022/12/09 08:39:12;;;;;;;10.05;8.35;;;1.10;1.00;;;;;;5082661;28;20803;-77
2022/12/09 08:41:43;;;;;;;9.52;8.50;;;1.10;76.00;;;;;;5084231;28;20219;-74
2022/12/09 08:44:15;;;;;;;14.85;9.77;;;1.20;82.30;;;;;;5093436;28;20189;-77
2022/12/09 08:46:45;;;;;;;16.42;12.90;;;1.10;99.90;;;;;;5091619;28;20199;-75
2022/12/09 08:49:17;;;;;;;12.98;9.85;;;1.20;1.00;;;;;;5087247;28;20251;-76
2022/12/09 08:51:47;;;;;;;14.90;10.48;;;1.30;1.00;;;;;;5080973;28;20369;-76
2022/12/09 08:54:17;;;;;;;11.27;10.18;;;1.40;1.00;;;;;;5094816;28;20266;-76
2022/12/09 08:56:46;;;;;;;12.68;9.50;;;1.40;1.00;;;;;;5087315;28;20592;-76
2022/12/09 08:59:16;;;;;;;15.38;10.05;;;1.30;1.00;;;;;;5085639;28;20213;-77
2022/12/09 09:01:45;;;;;;;15.57;10.30;;;1.30;1.00;;;;;;5092542;28;20211;-76
2022/12/09 09:04:16;;;;;;;12.13;10.93;;;1.40;99.90;;;;;;5085534;28;20216;-77
2022/12/09 09:06:49;;;;;;;11.30;10.07;;;1.30;99.90;;;;;;5090520;28;20199;-77
2022/12/09 09:09:21;;;;;;;15.40;10.85;;;1.40;99.90;;;;;;5088934;28;20279;-75
2022/12/09 09:11:50;;;;;;;18.15;11.10;;;1.50;1.00;;;;;;5086023;28;20238;-77
2022/12/09 09:14:19;;;;;;;12.25;10.02;;;1.50;99.90;;;;;;5082605;28;20216;-76
2022/12/09 09:16:49;;;;;;;15.07;9.65;;;1.60;99.90;;;;;;5088286;28;20204;-77
2022/12/09 09:19:20;;;;;;;17.23;11.65;;;1.60;99.90;;;;;;5089070;28;21245;-77
2022/12/09 09:21:49;;;;;;;16.20;10.55;;;1.50;99.90;;;;;;5082116;28;20239;-77
2022/12/09 09:24:26;;;;;;;15.32;10.60;;;1.50;99.90;;;;;;5090576;28;20295;-77
2022/12/09 09:26:55;;;;;;;15.10;10.45;;;1.50;2.90;;;;;;5088163;28;20229;-77
2022/12/09 09:29:24;;;;;;;12.45;11.10;;;1.50;99.90;;;;;;5091221;28;20204;-77
2022/12/09 09:31:54;;;;;;;14.70;12.65;;;1.60;99.90;;;;;;5089475;28;20252;-76
2022/12/09 09:34:24;;;;;;;14.48;10.00;;;1.70;99.90;;;;;;5092955;28;20206;-76
2022/12/09 09:36:53;;;;;;;14.05;10.45;;;1.70;99.90;;;;;;5091209;28;20211;-77
2022/12/09 09:39:24;;;;;;;13.15;11.77;;;1.80;1.00;;;;;;5087132;28;20221;-77
2022/12/09 09:41:55;;;;;;;12.48;10.77;;;1.90;96.40;;;;;;5090922;28;20228;-77
2022/12/09 09:44:33;;;;;;;19.35;11.63;;;1.90;99.90;;;;;;5096105;27;20204;-77
2022/12/09 09:47:11;;;;;;;18.00;12.57;;;1.90;99.90;;;;;;5090529;28;20194;-76
2022/12/09 09:49:48;;;;;;;15.20;11.23;;;2.00;1.00;;;;;;5092598;28;20694;-79
2022/12/09 09:52:20;;;;;;;15.23;12.57;;;2.00;15.80;;;;;;5089873;28;20707;-78
2022/12/09 09:54:51;;;;;;;14.30;12.05;;;2.00;1.00;;;;;;5089486;28;20203;-77
2022/12/09 09:57:25;;;;;;;13.68;10.38;;;2.10;1.00;;;;;;5094144;28;20220;-77
2022/12/09 10:00:05;;;;;;;14.77;11.25;;;2.10;1.00;;;;;;5091529;28;20239;-77
2022/12/09 10:02:51;;;;;;;14.43;10.95;;;2.10;99.90;;;;;;5093742;28;20216;-78
2022/12/09 10:05:24;;;;;;;13.68;10.70;;;2.10;1.00;;;;;;5096173;28;20251;-77
2022/12/09 10:07:57;;;;;;;14.50;10.85;;;2.20;1.00;;;;;;5091540;28;20213;-77
2022/12/09 10:10:39;;;;;;;16.35;11.50;;;2.20;99.90;;;;;;5096073;28;20250;-77
2022/12/09 10:13:20;;;;;;;12.90;10.68;;;2.20;1.00;;;;;;5094683;28;20211;-77
2022/12/09 10:15:58;;;;;;;13.35;10.50;;;2.20;99.90;;;;;;5093020;28;20567;-78
2022/12/09 10:18:31;;;;;;;14.55;12.07;;;2.30;1.00;;;;;;5093171;28;20301;-78
2022/12/09 10:21:01;;;;;;;12.75;10.77;;;2.30;1.00;;;;;;5088297;28;20777;-78
2022/12/09 10:23:32;;;;;;;16.38;12.30;;;2.30;99.90;;;;;;5086850;28;20709;-77
2022/12/09 10:26:06;;;;;;;15.93;11.70;;;2.30;1.00;;;;;;5085875;28;20210;-79
2022/12/09 10:28:39;;;;;;;14.77;10.60;;;2.40;1.00;;;;;;5090133;28;20204;-78
2022/12/09 10:31:11;;;;;;;15.35;11.20;;;2.30;99.90;;;;;;5092436;27;20286;-77
2022/12/09 10:33:42;;;;;;;18.92;10.95;;;2.30;99.90;;;;;;5096919;28;20214;-77
2022/12/09 10:36:30;;;;;;;14.30;11.30;;;2.30;1.00;;;;;;5094775;28;20212;-76
2022/12/09 10:39:04;;;;;;;17.10;11.93;;;2.40;1.00;;;;;;5094920;28;20211;-77
2022/12/09 10:44:30;;;;;;;13.63;11.85;;;2.40;1.00;;;;;;5108455;27;20623;-77
2022/12/09 10:47:01;;;;;;;18.27;12.57;;;2.40;1.00;;;;;;5087282;28;20566;-78
2022/12/09 10:49:31;;;;;;;17.02;12.52;;;2.40;1.00;;;;;;5093242;28;20224;-77
2022/12/09 10:52:03;;;;;;;14.65;11.25;;;2.30;1.00;;;;;;5089268;28;20233;-76
2022/12/09 10:54:35;;;;;;;13.18;11.55;;;2.40;1.00;;;;;;5091918;28;20197;-77
2022/12/09 10:57:22;;;;;;;15.98;12.27;;;2.40;1.00;;;;;;5089639;28;20201;-78
2022/12/09 11:00:05;;;;;;;17.20;13.25;;;2.50;1.00;;;;;;5090875;28;20214;-78
2022/12/09 11:02:35;;;;;;;19.67;13.23;;;2.50;1.00;;;;;;5085399;27;20670;-77
2022/12/09 11:05:23;;;;;;;19.52;13.65;;;2.60;39.10;;;;;;5089036;28;20198;-77
2022/12/09 11:07:53;;;;;;;18.30;13.88;;;2.70;1.00;;;;;;5091905;28;20703;-78
2022/12/09 11:10:24;;;;;;;16.95;13.25;;;2.70;1.00;;;;;;5093326;28;20269;-77
2022/12/09 11:13:03;;;;;;;17.00;13.98;;;2.60;1.00;;;;;;5085887;28;20220;-77
2022/12/09 11:15:37;;;;;;;20.48;14.27;;;2.70;1.00;;;;;;5086648;27;20233;-77
2022/12/09 11:18:08;;;;;;;21.33;16.27;;;2.60;1.00;;;;;;5085332;28;20224;-79
2022/12/09 11:20:36;;;;;;;23.23;14.27;;;2.70;1.00;;;;;;5089775;27;20224;-77
2022/12/09 11:23:14;;;;;;;31.65;18.90;;;2.60;99.90;;;;;;5085489;28;20457;-78
2022/12/09 11:25:54;;;;;;;38.30;19.17;;;2.70;1.00;;;;;;5091325;28;20202;-77
2022/12/09 11:28:27;;;;;;;14.57;12.25;;;2.60;1.00;;;;;;5092707;27;20702;-77
2022/12/09 11:30:59;;;;;;;16.38;12.30;;;2.60;1.00;;;;;;5091263;27;20291;-77
2022/12/09 11:33:50;;;;;;;15.55;13.27;;;2.60;1.00;;;;;;5085923;28;20200;-77
2022/12/09 11:36:22;;;;;;;17.20;12.65;;;2.70;1.00;;;;;;5103655;27;20199;-77
2022/12/09 11:38:54;;;;;;;16.40;12.43;;;2.80;1.00;;;;;;5087428;28;21099;-78
2022/12/09 11:44:28;;;;;;;16.58;12.85;;;2.90;1.00;;;;;;5088965;28;20534;-77
2022/12/09 11:47:00;;;;;;;16.95;12.50;;;2.90;1.00;;;;;;5085047;28;20205;-77
2022/12/09 11:49:32;;;;;;;14.88;11.98;;;2.90;99.90;;;;;;5085217;28;20555;-77
2022/12/09 11:52:04;;;;;;;16.15;13.02;;;3.00;99.90;;;;;;5083529;28;20249;-78
2022/12/09 11:54:40;;;;;;;16.85;12.02;;;2.80;99.90;;;;;;5084071;28;20242;-77
2022/12/09 11:57:20;;;;;;;22.00;12.05;;;2.80;99.90;;;;;;5088420;28;20206;-77
2022/12/09 11:59:54;;;;;;;17.90;12.48;;;2.90;1.00;;;;;;5093108;28;20548;-76
2022/12/09 12:02:30;;;;;;;17.08;13.55;;;2.90;99.90;;;;;;5096825;27;20294;-78
2022/12/09 12:05:06;;;;;;;15.85;11.75;;;2.80;99.90;;;;;;5093352;28;20665;-77
2022/12/09 12:07:44;;;;;;;16.70;13.68;;;2.80;1.00;;;;;;5094821;28;20226;-77
2022/12/09 12:10:19;;;;;;;13.85;12.15;;;2.80;1.00;;;;;;5088094;28;20201;-76
2022/12/09 12:13:00;;;;;;;17.52;12.50;;;2.80;1.00;;;;;;5079240;28;20217;-78
2022/12/09 12:15:38;;;;;;;19.52;13.63;;;2.80;1.00;;;;;;5086961;28;20281;-77
2022/12/09 12:18:18;;;;;;;14.63;13.10;;;2.70;1.00;;;;;;5087338;28;20596;-78
2022/12/09 12:21:01;;;;;;;15.05;11.35;;;2.80;1.00;;;;;;5088854;28;20222;-77
2022/12/09 12:23:46;;;;;;;18.08;12.70;;;2.80;1.00;;;;;;5084840;28;20557;-79
2022/12/09 12:26:21;;;;;;;18.08;13.82;;;2.80;76.80;;;;;;5087862;28;20204;-77
2022/12/09 12:29:15;;;;;;;15.02;11.80;;;2.80;1.00;;;;;;5085029;28;20223;-78
2022/12/09 12:32:05;;;;;;;16.00;12.20;;;2.90;47.60;;;;;;5086157;28;20244;-78
2022/12/09 12:34:44;;;;;;;15.18;11.98;;;2.90;1.00;;;;;;5082403;28;21238;-77
2022/12/09 12:37:28;;;;;;;17.02;12.15;;;2.90;1.00;;;;;;5092495;28;20256;-79
2022/12/09 12:40:06;;;;;;;15.18;12.95;;;2.90;8.80;;;;;;5085257;28;20211;-77
2022/12/09 12:48:38;;;;;;;15.48;12.88;;;2.80;51.30;;;;;;5055995;28;20770;-77
2022/12/09 12:51:20;;;;;;;14.93;11.23;;;2.80;1.00;;;;;;5091875;28;20221;-76
2022/12/09 12:53:57;;;;;;;16.10;12.65;;;2.80;1.00;;;;;;5084350;27;20784;-76
2022/12/09 12:56:31;;;;;;;13.93;12.00;;;2.80;1.00;;;;;;5090806;28;20207;-78
2022/12/09 12:59:09;;;;;;;14.90;12.45;;;2.80;1.00;;;;;;5092497;28;20247;-76
2022/12/09 13:01:46;;;;;;;15.05;12.18;;;2.90;1.00;;;;;;5094720;28;20218;-77
2022/12/09 13:04:23;;;;;;;17.13;12.32;;;2.80;1.00;;;;;;5092599;28;20209;-75
2022/12/09 13:06:56;;;;;;;16.90;12.85;;;2.90;1.00;;;;;;5088394;28;20211;-76
2022/12/09 13:09:35;;;;;;;16.35;13.10;;;2.90;1.00;;;;;;5081898;28;20214;-77
2022/12/09 13:12:08;;;;;;;13.77;11.90;;;2.90;1.00;;;;;;5087607;28;20299;-77
2022/12/09 13:14:42;;;;;;;16.40;12.02;;;2.80;1.00;;;;;;5090614;28;20202;-77
2022/12/09 13:17:21;;;;;;;18.27;12.93;;;2.80;1.00;;;;;;5092494;28;20244;-76
2022/12/09 13:19:55;;;;;;;15.15;11.48;;;2.80;68.40;;;;;;5095226;28;20270;-77
2022/12/09 13:22:29;;;;;;;14.52;12.35;;;2.80;13.30;;;;;;5089810;28;20241;-76
2022/12/09 13:25:06;;;;;;;14.93;12.07;;;2.90;88.60;;;;;;5093924;28;20214;-76